Portada
METAR-TAF:

METAR-TAF

Aeropuertos :

Khorramabad, Irán

latitud: 33-26-11N, longitud: 048-17-09E, altitud: 1155 m

Observación

El informe se hizo hace 12 horas y 58 minutos, a las 14:00 UTC
Viento 6 kt del oeste-noroeste
Temperatura 8°C
Humedad 81%
Presión 1017 hPa
Visibilidad 10 km o más
Escasas nubes a una altura de 3000 ft, Cumulonimbus.
Nubes dispersas a una altura de 3500 ft
Cielo nuboso a una altura de 8000 ft

METAR: OICK 261400Z 30006KT 9999 FEW030CB SCT035 BKN080 08/05 Q1017

Hora: 06:28 (02:58 UTC)


TAF: falta

Observaciones y pronósticos meteorológicos de más de 4000 aeropuertos (mensajes METAR y TAF).

Los puntos amarillos y rojos representan las estaciones disponibles.

Ponga el ratón en el punto deseado para ver el nombre de la estación.

Haga clic para ver las observaciones y los pronósticos meteorológicos.

Para cambiar el mapa : haga clic en los botones verdes con una cruz de color negro para hacer un zoom, en el botón verde con un guión para alejar o en las flechas verdes para mapas adyacentes.


METAR-TAF: